createdAt,value
2019-04-29T00:00:48.984Z,3.90
2019-04-29T00:01:55.175Z,4.45
2019-04-29T00:03:00.190Z,4.55
2019-04-29T00:04:05.331Z,4.75
2019-04-29T00:05:11.124Z,4.60
2019-04-29T00:06:16.589Z,4.20
2019-04-29T00:07:22.023Z,4.70
2019-04-29T00:08:27.221Z,4.70
2019-04-29T00:09:32.280Z,4.45
2019-04-29T00:10:37.744Z,4.55
2019-04-29T00:11:42.950Z,4.22
2019-04-29T00:12:48.053Z,4.83
2019-04-29T00:13:53.299Z,4.62
2019-04-29T00:15:16.176Z,4.35
2019-04-29T00:16:39.583Z,5.30
2019-04-29T00:17:56.941Z,4.47
2019-04-29T00:19:39.365Z,4.50
2019-04-29T00:20:49.650Z,4.30
2019-04-29T00:21:54.772Z,4.90
2019-04-29T00:22:59.702Z,3.98
2019-04-29T00:24:10.493Z,5.53
2019-04-29T00:25:12.427Z,4.53
2019-04-29T00:26:17.587Z,4.92
2019-04-29T00:27:22.665Z,4.67
2019-04-29T00:28:27.898Z,4.60
2019-04-29T00:29:32.862Z,4.58
2019-04-29T00:30:37.838Z,4.78
2019-04-29T00:31:42.925Z,4.58
2019-04-29T00:32:47.925Z,4.72
2019-04-29T00:33:52.896Z,5.37
2019-04-29T00:34:57.889Z,4.47
2019-04-29T00:36:03.163Z,4.60
2019-04-29T00:37:31.400Z,4.28
2019-04-29T00:38:55.357Z,5.70
2019-04-29T00:40:17.387Z,4.10
2019-04-29T00:41:40.330Z,3.90
2019-04-29T00:42:52.562Z,4.62
2019-04-29T00:44:00.691Z,4.30
2019-04-29T00:45:06.117Z,4.20
2019-04-29T00:46:11.914Z,4.37
2019-04-29T00:47:16.880Z,4.75
2019-04-29T00:48:22.245Z,4.60
2019-04-29T00:49:27.389Z,4.40
2019-04-29T00:50:32.787Z,4.50
2019-04-29T00:51:38.076Z,4.25
2019-04-29T00:52:43.216Z,3.92
2019-04-29T00:53:49.235Z,4.42
2019-04-29T00:55:00.599Z,4.00
2019-04-29T00:56:06.009Z,4.37
2019-04-29T00:57:11.004Z,4.25
2019-04-29T00:58:16.145Z,4.47
2019-04-29T00:59:21.199Z,4.03
2019-04-29T01:00:38.138Z,4.08
2019-04-29T01:01:46.551Z,4.42
2019-04-29T01:02:51.517Z,4.12
2019-04-29T01:03:56.583Z,4.22
2019-04-29T01:05:01.732Z,4.83
2019-04-29T01:06:06.956Z,4.40
2019-04-29T01:07:11.984Z,5.08
2019-04-29T01:08:17.065Z,4.62
2019-04-29T01:09:23.838Z,5.10
2019-04-29T01:10:29.365Z,4.30
2019-04-29T01:11:35.413Z,5.00
2019-04-29T01:12:40.450Z,4.08
2019-04-29T01:13:45.854Z,4.00
2019-04-29T01:14:51.027Z,4.03
2019-04-29T01:15:56.197Z,4.30
2019-04-29T01:17:01.346Z,4.10
2019-04-29T01:18:06.645Z,4.50
2019-04-29T01:19:11.762Z,4.10
2019-04-29T01:20:20.196Z,4.30
2019-04-29T01:21:25.296Z,4.70
2019-04-29T01:22:30.849Z,4.40
2019-04-29T01:23:35.877Z,4.70
2019-04-29T01:24:41.071Z,4.85
2019-04-29T01:25:48.263Z,4.03
2019-04-29T01:27:15.265Z,5.25
2019-04-29T01:28:28.662Z,5.35
2019-04-29T01:29:33.845Z,4.92
2019-04-29T01:31:12.359Z,5.50
2019-04-29T01:32:17.605Z,4.83
2019-04-29T01:33:24.282Z,4.50
2019-04-29T01:34:38.455Z,4.45
2019-04-29T01:35:43.843Z,4.78
2019-04-29T01:36:48.837Z,5.65
2019-04-29T01:37:53.854Z,4.42
2019-04-29T01:39:01.310Z,5.50
2019-04-29T01:40:37.861Z,4.58
2019-04-29T01:41:53.945Z,4.83
2019-04-29T01:42:59.482Z,5.15
2019-04-29T01:44:05.965Z,4.95
2019-04-29T01:45:11.159Z,5.60
2019-04-29T01:46:18.949Z,4.95
2019-04-29T01:47:24.082Z,5.72
2019-04-29T01:48:29.533Z,5.62
2019-04-29T01:49:34.828Z,5.33
2019-04-29T01:50:40.061Z,4.53
2019-04-29T01:51:45.069Z,4.50
2019-04-29T01:52:50.332Z,5.20
2019-04-29T01:53:55.499Z,4.20
2019-04-29T01:55:01.073Z,4.72
2019-04-29T01:56:06.230Z,4.90
2019-04-29T01:57:11.348Z,4.95
2019-04-29T01:58:16.452Z,4.53
2019-04-29T01:59:21.603Z,4.62
2019-04-29T02:00:26.912Z,4.30
2019-04-29T02:01:31.938Z,4.95
2019-04-29T02:02:37.129Z,4.85
2019-04-29T02:03:42.278Z,5.03
2019-04-29T02:04:47.386Z,4.97
2019-04-29T02:05:52.625Z,4.90
2019-04-29T02:06:57.562Z,4.92
2019-04-29T02:08:02.530Z,4.75
2019-04-29T02:09:11.212Z,5.03
2019-04-29T02:10:28.488Z,5.45
2019-04-29T02:11:33.703Z,5.28
2019-04-29T02:12:38.689Z,5.22
2019-04-29T02:13:43.879Z,4.65
2019-04-29T02:14:49.001Z,4.95
2019-04-29T02:15:54.226Z,4.97
2019-04-29T02:16:59.609Z,5.62
2019-04-29T02:18:04.817Z,5.53
2019-04-29T02:19:10.066Z,5.35
2019-04-29T02:20:15.308Z,5.10
2019-04-29T02:21:20.430Z,4.55
2019-04-29T02:22:45.912Z,5.00
2019-04-29T02:24:02.580Z,5.40
2019-04-29T02:25:20.742Z,5.20
2019-04-29T02:26:26.043Z,4.85
2019-04-29T02:27:31.093Z,5.00
2019-04-29T02:28:36.358Z,5.25
2019-04-29T02:29:41.322Z,5.30
2019-04-29T02:30:51.751Z,5.10
2019-04-29T02:31:56.654Z,4.70
2019-04-29T02:33:01.923Z,5.65
2019-04-29T02:34:07.267Z,5.05
2019-04-29T02:35:12.283Z,5.45
2019-04-29T02:36:17.318Z,6.08
2019-04-29T02:37:28.381Z,5.60
2019-04-29T02:38:42.166Z,4.70
2019-04-29T02:39:53.324Z,5.60
2019-04-29T02:41:06.404Z,5.25
2019-04-29T02:42:45.319Z,5.42
2019-04-29T02:43:52.296Z,4.60
2019-04-29T02:45:04.308Z,5.08
2019-04-29T02:46:09.389Z,4.70
2019-04-29T02:47:14.531Z,5.97
2019-04-29T02:48:19.590Z,5.47
2019-04-29T02:49:24.628Z,5.17
2019-04-29T02:50:29.751Z,5.05
2019-04-29T02:51:52.273Z,5.28
2019-04-29T02:52:57.373Z,6.20
2019-04-29T02:54:02.326Z,5.35
2019-04-29T02:55:08.627Z,6.20
2019-04-29T02:56:13.908Z,5.28
2019-04-29T02:57:36.628Z,5.05
2019-04-29T02:58:47.882Z,4.55
2019-04-29T02:59:55.752Z,5.37
2019-04-29T03:01:08.951Z,5.45
2019-04-29T03:02:30.706Z,5.83
2019-04-29T03:03:53.242Z,5.03
2019-04-29T03:05:13.611Z,5.50
2019-04-29T03:06:18.756Z,4.37
2019-04-29T03:07:23.898Z,5.60
2019-04-29T03:08:29.098Z,5.42
2019-04-29T03:09:45.181Z,5.55
2019-04-29T03:10:50.362Z,5.30
2019-04-29T03:11:55.754Z,5.30
2019-04-29T03:13:00.841Z,5.45
2019-04-29T03:14:06.175Z,5.90
2019-04-29T03:15:11.805Z,5.25
2019-04-29T03:16:18.743Z,5.55
2019-04-29T03:17:23.870Z,5.20
2019-04-29T03:18:31.245Z,5.30
2019-04-29T03:19:38.768Z,5.58
2019-04-29T03:20:49.446Z,6.50
2019-04-29T03:21:56.764Z,6.20
2019-04-29T03:23:09.285Z,5.42
2019-04-29T03:24:14.496Z,5.45
2019-04-29T03:25:19.883Z,5.55
2019-04-29T03:26:24.927Z,4.80
2019-04-29T03:27:30.714Z,4.95
2019-04-29T03:28:36.102Z,4.97
2019-04-29T03:29:41.083Z,4.75
2019-04-29T03:30:46.475Z,5.65
2019-04-29T03:31:56.053Z,5.53
2019-04-29T03:33:01.264Z,4.95
2019-04-29T03:34:06.274Z,5.62
2019-04-29T03:35:11.599Z,5.45
2019-04-29T03:36:16.668Z,5.30
2019-04-29T03:37:21.692Z,5.15
2019-04-29T03:38:27.465Z,5.12
2019-04-29T03:39:32.564Z,5.30
2019-04-29T03:40:37.905Z,5.70
2019-04-29T03:41:43.134Z,6.10
2019-04-29T03:42:48.260Z,5.60
2019-04-29T03:43:53.451Z,5.85
2019-04-29T03:44:58.538Z,6.53
2019-04-29T03:46:03.830Z,6.10
2019-04-29T03:47:08.907Z,5.50
2019-04-29T03:48:13.927Z,6.50
2019-04-29T03:49:19.103Z,5.70
2019-04-29T03:50:24.126Z,5.85
2019-04-29T03:51:29.463Z,6.20
2019-04-29T03:52:34.540Z,6.45
2019-04-29T03:53:39.539Z,6.17
2019-04-29T03:54:44.942Z,6.10
2019-04-29T03:55:52.155Z,5.40
2019-04-29T03:56:57.306Z,5.75
2019-04-29T03:58:02.602Z,5.65
2019-04-29T03:59:07.579Z,5.80
2019-04-29T04:00:14.558Z,5.28
2019-04-29T04:01:28.498Z,6.08
2019-04-29T04:02:42.638Z,5.65
2019-04-29T04:03:51.998Z,6.08
2019-04-29T04:05:21.870Z,6.28
2019-04-29T04:06:45.334Z,6.03
2019-04-29T04:07:54.318Z,5.50
2019-04-29T04:09:08.604Z,5.90
2019-04-29T04:10:14.146Z,5.45
2019-04-29T04:11:19.587Z,5.92
2019-04-29T04:12:24.472Z,4.97
2019-04-29T04:13:29.751Z,5.90
2019-04-29T04:14:34.827Z,6.05
2019-04-29T04:15:40.037Z,6.45
2019-04-29T04:17:20.651Z,5.83
2019-04-29T04:18:27.698Z,5.85
2019-04-29T04:19:33.305Z,5.92
2019-04-29T04:20:38.518Z,5.80
2019-04-29T04:21:43.497Z,6.30
2019-04-29T04:22:48.897Z,6.03
2019-04-29T04:23:57.976Z,5.85
2019-04-29T04:25:00.734Z,5.78
2019-04-29T04:26:06.013Z,5.45
2019-04-29T04:27:11.160Z,6.22
2019-04-29T04:28:16.346Z,6.28
2019-04-29T04:29:21.842Z,6.42
2019-04-29T04:30:27.422Z,8.45
2019-04-29T04:31:32.477Z,5.47
2019-04-29T04:32:37.781Z,6.58
2019-04-29T04:33:43.992Z,5.95
2019-04-29T04:34:49.237Z,6.12
2019-04-29T04:35:54.437Z,9.88
2019-04-29T04:37:00.409Z,5.60
2019-04-29T04:38:05.958Z,6.45
2019-04-29T04:39:11.278Z,6.80
2019-04-29T04:40:23.486Z,6.80
2019-04-29T04:41:28.833Z,6.00
2019-04-29T04:42:34.595Z,6.35
2019-04-29T04:43:40.361Z,6.70
2019-04-29T04:44:48.920Z,6.80
2019-04-29T04:45:54.013Z,5.92
2019-04-29T04:46:59.357Z,5.92
2019-04-29T04:48:04.511Z,5.87
2019-04-29T04:49:09.580Z,7.40
2019-04-29T04:50:14.876Z,5.78
2019-04-29T04:51:21.072Z,6.42
2019-04-29T04:52:26.356Z,8.30
2019-04-29T04:53:31.322Z,6.60
2019-04-29T04:54:36.806Z,6.95
2019-04-29T04:55:43.129Z,6.60
2019-04-29T04:56:48.362Z,6.60
2019-04-29T04:57:53.797Z,7.10
2019-04-29T04:58:58.917Z,8.23
2019-04-29T05:00:06.364Z,8.18
2019-04-29T05:01:11.711Z,7.85
2019-04-29T05:02:16.963Z,8.80
2019-04-29T05:03:22.133Z,7.58
2019-04-29T05:04:27.410Z,7.62
2019-04-29T05:05:32.819Z,7.62
2019-04-29T05:06:37.913Z,8.23
2019-04-29T05:07:42.995Z,8.53
2019-04-29T05:08:48.154Z,10.60
2019-04-29T05:09:53.358Z,8.63
2019-04-29T05:10:58.511Z,9.50
2019-04-29T05:12:03.804Z,7.78
2019-04-29T05:13:09.039Z,8.95
2019-04-29T05:14:14.724Z,10.43
2019-04-29T05:15:20.147Z,8.58
2019-04-29T05:16:25.394Z,8.93
2019-04-29T05:17:30.660Z,9.23
2019-04-29T05:18:35.656Z,9.18
2019-04-29T05:19:40.858Z,9.13
2019-04-29T05:20:46.064Z,8.75
2019-04-29T05:21:51.138Z,8.25
2019-04-29T05:23:02.013Z,10.82
2019-04-29T05:24:07.069Z,9.63
2019-04-29T05:25:12.370Z,9.23
2019-04-29T05:26:17.411Z,9.88
2019-04-29T05:27:22.590Z,9.63
2019-04-29T05:28:27.565Z,9.78
2019-04-29T05:29:32.602Z,9.45
2019-04-29T05:30:38.060Z,9.73
2019-04-29T05:31:43.332Z,10.25
2019-04-29T05:32:48.706Z,10.72
2019-04-29T05:33:53.855Z,11.48
2019-04-29T05:35:01.314Z,10.70
2019-04-29T05:36:38.273Z,10.65
2019-04-29T05:37:56.674Z,11.10
2019-04-29T05:39:08.949Z,10.70
2019-04-29T05:40:33.077Z,9.55
2019-04-29T05:41:38.328Z,10.68
2019-04-29T05:42:43.392Z,8.88
2019-04-29T05:44:13.355Z,8.98
2019-04-29T05:45:26.387Z,9.43
2019-04-29T05:46:56.401Z,8.88
2019-04-29T05:48:07.613Z,8.95
2019-04-29T05:49:14.645Z,8.30
2019-04-29T05:50:47.617Z,8.80
2019-04-29T05:51:57.491Z,9.20
2019-04-29T05:53:16.365Z,8.45
2019-04-29T05:54:21.599Z,8.98
2019-04-29T05:55:26.816Z,8.95
2019-04-29T05:56:31.786Z,9.40
2019-04-29T05:57:36.958Z,9.90
2019-04-29T05:58:42.096Z,9.10
2019-04-29T05:59:49.457Z,7.97
2019-04-29T06:01:01.112Z,8.90
2019-04-29T06:02:06.208Z,8.95
2019-04-29T06:03:11.332Z,8.65
2019-04-29T06:04:18.175Z,8.70
2019-04-29T06:05:23.645Z,9.25
2019-04-29T06:06:28.798Z,8.95
2019-04-29T06:07:34.120Z,9.00
2019-04-29T06:08:39.549Z,8.98
2019-04-29T06:09:47.024Z,9.93
2019-04-29T06:10:52.142Z,9.40
2019-04-29T06:11:57.339Z,8.95
2019-04-29T06:13:02.684Z,9.65
2019-04-29T06:14:08.206Z,9.78
2019-04-29T06:15:13.521Z,9.15
2019-04-29T06:16:20.877Z,9.33
2019-04-29T06:17:25.641Z,9.95
2019-04-29T06:18:31.189Z,11.08
2019-04-29T06:19:39.329Z,12.15
2019-04-29T06:20:44.559Z,11.50
2019-04-29T06:21:49.865Z,10.45
2019-04-29T06:22:54.954Z,10.25
2019-04-29T06:24:04.356Z,12.60
2019-04-29T06:25:07.265Z,11.88
2019-04-29T06:26:12.412Z,11.50
2019-04-29T06:27:17.520Z,10.68
2019-04-29T06:28:26.421Z,11.28
2019-04-29T06:29:31.182Z,10.82
2019-04-29T06:30:38.753Z,10.53
2019-04-29T06:31:43.222Z,11.03
2019-04-29T06:32:48.202Z,11.08
2019-04-29T06:33:53.282Z,11.33
2019-04-29T06:34:58.368Z,10.03
2019-04-29T06:36:03.439Z,11.12
2019-04-29T06:37:08.623Z,12.68
2019-04-29T06:38:14.177Z,10.93
2019-04-29T06:39:19.090Z,11.93
2019-04-29T06:40:24.152Z,11.15
2019-04-29T06:41:29.380Z,13.68
2019-04-29T06:42:34.581Z,13.58
2019-04-29T06:43:39.673Z,13.58
2019-04-29T06:44:49.118Z,12.78
2019-04-29T06:45:52.305Z,11.65
2019-04-29T06:46:57.277Z,13.93
2019-04-29T06:48:02.437Z,14.80
2019-04-29T06:49:10.334Z,14.68
2019-04-29T06:50:14.975Z,13.93
2019-04-29T06:51:19.968Z,13.83
2019-04-29T06:52:25.365Z,16.35
2019-04-29T06:53:30.601Z,15.60
2019-04-29T06:54:35.613Z,15.72
2019-04-29T06:55:40.682Z,15.55
2019-04-29T06:56:45.783Z,18.02
2019-04-29T06:57:50.875Z,17.05
2019-04-29T06:58:56.131Z,17.07
2019-04-29T07:00:01.156Z,17.75
2019-04-29T07:01:06.306Z,17.65
2019-04-29T07:02:14.414Z,17.37
2019-04-29T07:03:20.908Z,17.05
2019-04-29T07:04:25.284Z,16.97
2019-04-29T07:05:30.508Z,16.97
2019-04-29T07:06:35.855Z,19.00
2019-04-29T07:07:40.985Z,18.20
2019-04-29T07:08:46.088Z,18.00
2019-04-29T07:09:51.138Z,17.65
2019-04-29T07:11:01.214Z,16.30
2019-04-29T07:12:03.433Z,17.40
2019-04-29T07:13:08.823Z,17.35
2019-04-29T07:14:13.955Z,20.10
2019-04-29T07:15:19.056Z,18.62
2019-04-29T07:16:27.227Z,18.15
2019-04-29T07:17:30.919Z,17.55
2019-04-29T07:18:40.323Z,17.25
2019-04-29T07:19:42.939Z,17.95
2019-04-29T07:20:48.323Z,18.77
2019-04-29T07:21:56.313Z,20.25
2019-04-29T07:23:00.690Z,18.37
2019-04-29T07:24:06.787Z,20.23
2019-04-29T07:25:11.853Z,18.62
2019-04-29T07:26:17.003Z,20.65
2019-04-29T07:27:22.054Z,17.55
2019-04-29T07:28:27.143Z,19.73
2019-04-29T07:29:32.981Z,18.42
2019-04-29T07:30:59.917Z,20.50
2019-04-29T07:31:45.187Z,18.87
2019-04-29T07:32:50.280Z,19.12
2019-04-29T07:33:57.935Z,17.48
2019-04-29T07:35:05.893Z,19.65
2019-04-29T07:36:11.085Z,19.75
2019-04-29T07:37:16.852Z,18.82
2019-04-29T07:38:22.130Z,20.20
2019-04-29T07:39:31.661Z,20.48
2019-04-29T07:40:34.231Z,19.55
2019-04-29T07:41:39.469Z,23.42
2019-04-29T07:42:44.645Z,26.65
2019-04-29T07:43:49.687Z,26.60
2019-04-29T07:45:43.583Z,27.37
2019-04-29T07:46:56.675Z,25.90
2019-04-29T07:47:57.171Z,27.87
2019-04-29T07:49:05.584Z,25.80
2019-04-29T07:50:10.003Z,25.95
2019-04-29T07:51:15.110Z,26.82
2019-04-29T07:52:20.418Z,26.27
2019-04-29T07:53:35.049Z,29.10
2019-04-29T07:54:32.150Z,26.05
2019-04-29T07:55:37.190Z,26.62
2019-04-29T07:56:43.628Z,27.42
2019-04-29T07:57:52.131Z,24.95
2019-04-29T07:58:58.879Z,24.90
2019-04-29T08:00:02.877Z,26.35
2019-04-29T08:01:07.955Z,24.60
2019-04-29T08:02:12.986Z,25.57
2019-04-29T08:03:18.062Z,27.90
2019-04-29T08:04:23.270Z,26.57
2019-04-29T08:05:29.814Z,25.23
2019-04-29T08:06:38.257Z,24.82
2019-04-29T08:07:42.534Z,23.10
2019-04-29T08:08:55.122Z,25.92
2019-04-29T08:09:56.204Z,23.57
2019-04-29T08:11:01.410Z,26.42
2019-04-29T08:12:06.588Z,25.60
2019-04-29T08:13:12.730Z,30.45
2019-04-29T08:14:19.119Z,25.17
2019-04-29T08:15:24.418Z,26.65
2019-04-29T08:16:29.647Z,26.40
2019-04-29T08:17:34.650Z,31.33
2019-04-29T08:18:39.928Z,29.55
2019-04-29T08:19:44.940Z,28.57
2019-04-29T08:20:50.254Z,27.67
2019-04-29T08:21:55.366Z,28.60
2019-04-29T08:23:02.588Z,31.23
2019-04-29T08:24:11.610Z,23.87
2019-04-29T08:25:14.656Z,27.87
2019-04-29T08:26:19.689Z,27.87
2019-04-29T08:27:24.783Z,26.97
2019-04-29T08:28:30.133Z,29.10
2019-04-29T08:29:35.832Z,28.35
2019-04-29T08:30:45.759Z,26.50
2019-04-29T08:31:52.045Z,28.27
2019-04-29T08:32:55.432Z,26.27
2019-04-29T08:34:01.006Z,28.77
2019-04-29T08:35:06.397Z,29.18
2019-04-29T08:36:11.435Z,24.15
2019-04-29T08:37:16.630Z,23.18
2019-04-29T08:38:21.725Z,22.90
2019-04-29T08:39:29.530Z,23.45
2019-04-29T08:40:34.543Z,23.67
2019-04-29T08:41:39.703Z,20.45
2019-04-29T08:42:49.295Z,20.05
2019-04-29T08:44:21.490Z,22.40
2019-04-29T08:45:40.471Z,20.43
2019-04-29T08:47:04.503Z,21.73
2019-04-29T08:48:09.901Z,23.30
2019-04-29T08:49:15.234Z,21.30
2019-04-29T08:50:20.515Z,23.40
2019-04-29T08:51:25.587Z,24.87
2019-04-29T08:52:30.616Z,24.63
2019-04-29T08:53:35.758Z,24.23
2019-04-29T08:54:40.722Z,22.70
2019-04-29T08:55:45.776Z,24.30
2019-04-29T08:57:02.183Z,25.48
2019-04-29T08:57:57.565Z,31.97
2019-04-29T08:59:02.555Z,27.45
2019-04-29T09:00:09.372Z,27.22
2019-04-29T09:01:14.420Z,30.77
2019-04-29T09:02:33.684Z,32.55
2019-04-29T09:03:39.663Z,30.17
2019-04-29T09:04:33.832Z,32.23
2019-04-29T09:05:41.667Z,28.45
2019-04-29T09:06:46.739Z,27.77
2019-04-29T09:07:57.136Z,28.05
2019-04-29T09:08:59.836Z,27.20
2019-04-29T09:10:05.473Z,26.25
2019-04-29T09:11:12.810Z,25.15
2019-04-29T09:12:19.200Z,25.75
2019-04-29T09:13:24.290Z,25.77
2019-04-29T09:14:29.789Z,24.90
2019-04-29T09:15:35.309Z,25.17
2019-04-29T09:16:40.549Z,28.38
2019-04-29T09:17:45.847Z,22.20
2019-04-29T09:18:51.078Z,20.95
2019-04-29T09:19:56.209Z,23.30
2019-04-29T09:21:01.205Z,20.70
2019-04-29T09:22:08.081Z,21.75
2019-04-29T09:23:15.739Z,22.02
2019-04-29T09:24:20.864Z,21.20
2019-04-29T09:26:01.734Z,22.82
2019-04-29T09:27:16.205Z,21.95
2019-04-29T09:28:27.004Z,22.40
2019-04-29T09:29:30.669Z,19.48
2019-04-29T09:30:38.502Z,19.60
2019-04-29T09:31:42.481Z,20.77
2019-04-29T09:32:47.575Z,20.05
2019-04-29T09:34:06.009Z,16.80
2019-04-29T09:35:00.539Z,19.17
2019-04-29T09:36:09.301Z,19.35
2019-04-29T09:37:12.596Z,18.02
2019-04-29T09:38:17.706Z,19.62
2019-04-29T09:39:23.004Z,18.90
2019-04-29T09:40:30.132Z,19.82
2019-04-29T09:41:48.626Z,20.97
2019-04-29T09:43:00.704Z,18.52
2019-04-29T09:44:23.412Z,20.32
2019-04-29T09:45:34.200Z,19.15
2019-04-29T09:46:39.347Z,19.80
2019-04-29T09:47:44.735Z,18.40
2019-04-29T09:48:49.747Z,19.90
2019-04-29T09:49:55.010Z,19.52
2019-04-29T09:51:00.111Z,19.15
2019-04-29T09:52:05.702Z,21.05
2019-04-29T09:53:10.894Z,20.43
2019-04-29T09:54:16.277Z,20.72
2019-04-29T09:55:22.158Z,18.85
2019-04-29T09:56:27.484Z,19.42
2019-04-29T09:57:34.174Z,19.42
2019-04-29T09:58:39.309Z,20.48
2019-04-29T09:59:49.586Z,23.07
2019-04-29T10:01:22.611Z,21.00
2019-04-29T10:02:36.484Z,21.93
2019-04-29T10:04:02.095Z,19.07
2019-04-29T10:05:24.988Z,18.92
2019-04-29T10:06:32.773Z,20.85
2019-04-29T10:07:38.100Z,19.90
2019-04-29T10:08:43.367Z,19.82
2019-04-29T10:09:56.838Z,18.80
2019-04-29T10:10:55.332Z,19.17
2019-04-29T10:12:00.494Z,17.00
2019-04-29T10:13:05.855Z,19.98
2019-04-29T10:14:11.014Z,17.62
2019-04-29T10:15:17.913Z,17.67
2019-04-29T10:16:39.459Z,19.15
2019-04-29T10:17:55.707Z,19.90
2019-04-29T10:19:05.311Z,19.45
2019-04-29T10:20:33.781Z,20.32
2019-04-29T10:21:39.269Z,19.55
2019-04-29T10:22:44.377Z,19.05
2019-04-29T10:23:49.725Z,20.37
2019-04-29T10:24:54.903Z,14.35
2019-04-29T10:26:00.593Z,19.20
2019-04-29T10:27:07.339Z,17.32
2019-04-29T10:28:12.602Z,16.48
2019-04-29T10:29:20.316Z,16.95
2019-04-29T10:30:26.792Z,18.10
2019-04-29T10:31:33.577Z,16.82
2019-04-29T10:32:42.334Z,16.95
2019-04-29T10:33:50.234Z,16.32
2019-04-29T10:34:54.942Z,13.38
2019-04-29T10:36:00.199Z,15.43
2019-04-29T10:37:06.613Z,15.00
2019-04-29T10:38:11.922Z,15.65
2019-04-29T10:39:42.559Z,14.28
2019-04-29T10:41:05.314Z,16.55
2019-04-29T10:42:10.923Z,14.35
2019-04-29T10:43:41.313Z,16.10
2019-04-29T10:44:56.884Z,15.20
2019-04-29T10:46:21.196Z,16.55
2019-04-29T10:47:43.904Z,15.45
2019-04-29T10:48:59.119Z,16.20
2019-04-29T10:50:10.707Z,16.73
2019-04-29T10:51:16.293Z,15.13
2019-04-29T10:52:21.535Z,15.10
2019-04-29T10:53:28.886Z,16.48
2019-04-29T10:54:34.004Z,14.73
2019-04-29T10:55:39.523Z,14.55
2019-04-29T10:56:44.782Z,15.53
2019-04-29T10:57:51.433Z,14.80
2019-04-29T10:58:56.681Z,16.73
2019-04-29T11:00:24.167Z,16.75
2019-04-29T11:02:25.567Z,15.85
2019-04-29T11:03:30.986Z,17.30
2019-04-29T11:04:38.028Z,19.85
2019-04-29T11:05:59.997Z,18.10
2019-04-29T11:06:53.805Z,19.73
2019-04-29T11:08:05.575Z,18.20
2019-04-29T11:09:28.077Z,17.48
2019-04-29T11:10:33.371Z,17.35
2019-04-29T11:11:38.554Z,16.97
2019-04-29T11:12:43.954Z,17.30
2019-04-29T11:13:50.618Z,16.95
2019-04-29T11:14:55.802Z,10.95
2019-04-29T11:16:00.976Z,16.37
2019-04-29T11:17:15.865Z,16.12
2019-04-29T11:18:12.901Z,14.33
2019-04-29T11:19:19.212Z,15.65
2019-04-29T11:20:24.396Z,15.93
2019-04-29T11:21:31.279Z,16.37
2019-04-29T11:22:44.360Z,13.43
2019-04-29T11:23:58.002Z,14.45
2019-04-29T11:25:14.631Z,12.30
2019-04-29T11:26:44.622Z,12.95
2019-04-29T11:27:56.019Z,12.18
2019-04-29T11:29:00.206Z,14.60
2019-04-29T11:30:07.980Z,14.40
2019-04-29T11:31:14.030Z,15.98
2019-04-29T11:32:36.376Z,12.73
2019-04-29T11:34:00.496Z,14.68
2019-04-29T11:35:13.568Z,14.98
2019-04-29T11:36:20.611Z,14.95
2019-04-29T11:37:25.757Z,15.83
2019-04-29T11:38:33.359Z,15.08
2019-04-29T11:39:37.713Z,14.23
2019-04-29T11:40:44.081Z,11.97
2019-04-29T11:41:50.289Z,11.30
2019-04-29T11:42:56.727Z,12.63
2019-04-29T11:44:01.818Z,12.82
2019-04-29T11:45:09.222Z,11.10
2019-04-29T11:46:15.595Z,9.75
2019-04-29T11:47:24.902Z,11.97
2019-04-29T11:48:27.881Z,12.07
2019-04-29T11:49:39.010Z,11.18
2019-04-29T11:50:57.933Z,11.12
2019-04-29T11:52:09.767Z,12.78
2019-04-29T11:53:11.360Z,11.60
2019-04-29T11:54:18.105Z,13.25
2019-04-29T11:55:23.507Z,12.80
2019-04-29T11:56:28.876Z,12.40
2019-04-29T11:57:46.787Z,16.75
2019-04-29T11:59:04.919Z,15.23
2019-04-29T12:00:24.503Z,16.50
2019-04-29T12:01:47.120Z,12.95
2019-04-29T12:02:57.406Z,14.28
2019-04-29T12:04:05.766Z,13.22
2019-04-29T12:05:31.368Z,13.75
2019-04-29T12:06:36.762Z,11.78
2019-04-29T12:07:41.842Z,14.28
2019-04-29T12:08:48.260Z,13.95
2019-04-29T12:09:53.787Z,12.78
2019-04-29T12:11:07.298Z,12.78
2019-04-29T12:12:07.907Z,14.63
2019-04-29T12:13:22.926Z,13.90
2019-04-29T12:14:37.998Z,14.50
2019-04-29T12:15:57.217Z,13.35
2019-04-29T12:17:12.515Z,12.80
2019-04-29T12:18:20.227Z,12.23
2019-04-29T12:19:28.614Z,12.98
2019-04-29T12:20:41.514Z,12.53
2019-04-29T12:21:46.672Z,14.07
2019-04-29T12:22:52.056Z,12.93
2019-04-29T12:23:59.006Z,12.40
2019-04-29T12:25:04.390Z,14.10
2019-04-29T12:26:11.297Z,12.40
2019-04-29T12:27:19.882Z,13.38
2019-04-29T12:28:23.379Z,14.93
2019-04-29T12:29:28.683Z,12.37
2019-04-29T12:30:37.590Z,11.80
2019-04-29T12:32:00.646Z,11.78
2019-04-29T12:33:28.456Z,7.40
2019-04-29T12:34:45.388Z,11.93
2019-04-29T12:36:03.344Z,11.60
2019-04-29T12:37:15.853Z,11.05
2019-04-29T12:38:50.737Z,11.00
2019-04-29T12:40:23.924Z,11.18
2019-04-29T12:41:49.388Z,12.63
2019-04-29T12:43:11.356Z,11.20
2019-04-29T12:44:35.292Z,10.63
2019-04-29T12:45:47.310Z,12.65
2019-04-29T12:46:58.575Z,13.53
2019-04-29T12:48:06.465Z,11.53
2019-04-29T12:49:13.847Z,12.00
2019-04-29T12:50:21.700Z,10.35
2019-04-29T12:51:25.270Z,11.70
2019-04-29T12:52:30.347Z,10.78
2019-04-29T12:53:35.778Z,13.05
2019-04-29T12:54:41.977Z,11.70
2019-04-29T12:55:53.176Z,12.25
2019-04-29T12:56:55.872Z,12.13
2019-04-29T12:58:01.358Z,11.83
2019-04-29T12:59:06.728Z,12.15
2019-04-29T13:00:13.695Z,11.88
2019-04-29T13:01:50.847Z,11.83
2019-04-29T13:03:02.360Z,11.85
2019-04-29T13:04:44.998Z,12.33
2019-04-29T13:06:02.632Z,11.55
2019-04-29T13:07:38.812Z,10.08
2019-04-29T13:08:46.838Z,10.75
2019-04-29T13:09:53.551Z,10.70
2019-04-29T13:11:01.508Z,11.22
2019-04-29T13:12:19.101Z,11.10
2019-04-29T13:13:15.673Z,11.28
2019-04-29T13:14:22.399Z,11.00
2019-04-29T13:15:43.919Z,10.93
2019-04-29T13:17:14.495Z,10.00
2019-04-29T13:18:23.017Z,9.00
2019-04-29T13:19:37.363Z,11.12
2019-04-29T13:20:45.640Z,9.93
2019-04-29T13:21:49.295Z,10.75
2019-04-29T13:22:54.364Z,9.80
2019-04-29T13:24:13.847Z,10.05
2019-04-29T13:25:06.852Z,10.03
2019-04-29T13:26:12.377Z,9.20
2019-04-29T13:27:20.744Z,10.65
2019-04-29T13:28:30.199Z,9.85
2019-04-29T13:29:32.125Z,10.03
2019-04-29T13:30:38.249Z,9.25
2019-04-29T13:31:43.351Z,10.05
2019-04-29T13:32:48.695Z,9.38
2019-04-29T13:33:55.378Z,8.83
2019-04-29T13:35:10.877Z,8.80
2019-04-29T13:36:13.174Z,8.18
2019-04-29T13:37:20.588Z,8.70
2019-04-29T13:38:25.169Z,8.45
2019-04-29T13:39:39.227Z,9.83
2019-04-29T13:40:38.936Z,9.65
2019-04-29T13:41:57.687Z,9.38
2019-04-29T13:42:51.091Z,10.55
2019-04-29T13:44:03.901Z,9.53
2019-04-29T13:45:12.128Z,8.63
2019-04-29T13:46:31.305Z,8.85
2019-04-29T13:47:53.886Z,9.70
2019-04-29T13:49:29.837Z,9.23
2019-04-29T13:50:40.998Z,8.43
2019-04-29T13:51:46.053Z,9.08
2019-04-29T13:52:51.073Z,7.78
2019-04-29T13:53:59.194Z,9.83
2019-04-29T13:55:16.649Z,8.85
2019-04-29T13:56:13.987Z,8.85
2019-04-29T13:57:16.975Z,9.13
2019-04-29T13:58:26.763Z,8.33
2019-04-29T13:59:36.285Z,9.10
2019-04-29T14:00:55.547Z,7.58
2019-04-29T14:02:07.460Z,8.23
2019-04-29T14:03:15.896Z,9.20
2019-04-29T14:04:26.206Z,8.10
2019-04-29T14:05:32.493Z,8.05
2019-04-29T14:06:40.834Z,6.95
2019-04-29T14:07:48.736Z,7.22
2019-04-29T14:08:54.254Z,6.50
2019-04-29T14:09:59.446Z,7.30
2019-04-29T14:11:04.746Z,7.40
2019-04-29T14:12:46.647Z,6.85
2019-04-29T14:13:20.612Z,6.78
2019-04-29T14:14:24.670Z,7.78
2019-04-29T14:15:33.952Z,7.97
2019-04-29T14:16:37.250Z,7.97
2019-04-29T14:17:42.466Z,9.00
2019-04-29T14:18:48.232Z,9.05
2019-04-29T14:19:57.029Z,7.90
2019-04-29T14:21:01.675Z,7.95
2019-04-29T14:22:21.076Z,7.92
2019-04-29T14:23:13.774Z,8.38
2019-04-29T14:24:19.017Z,8.75
2019-04-29T14:25:24.204Z,8.00
2019-04-29T14:26:29.661Z,7.67
2019-04-29T14:27:34.603Z,8.45
2019-04-29T14:28:39.686Z,9.05
2019-04-29T14:29:44.748Z,9.40
2019-04-29T14:30:49.791Z,7.45
2019-04-29T14:31:59.357Z,8.48
2019-04-29T14:33:04.090Z,8.63
2019-04-29T14:34:20.473Z,8.85
2019-04-29T14:35:36.936Z,8.88
2019-04-29T14:36:41.984Z,7.87
2019-04-29T14:37:54.832Z,8.20
2019-04-29T14:38:54.143Z,8.20
2019-04-29T14:40:02.846Z,7.33
2019-04-29T14:41:06.471Z,7.50
2019-04-29T14:42:25.633Z,8.08
2019-04-29T14:43:57.182Z,8.68
2019-04-29T14:45:24.141Z,8.68
2019-04-29T14:46:40.560Z,8.83
2019-04-29T14:48:10.751Z,7.80
2019-04-29T14:49:39.862Z,7.60
2019-04-29T14:50:44.706Z,6.95
2019-04-29T14:51:50.021Z,8.40
2019-04-29T14:52:55.332Z,7.30
2019-04-29T14:54:01.355Z,8.40
2019-04-29T14:55:07.755Z,8.15
2019-04-29T14:56:15.715Z,11.00
2019-04-29T14:57:19.889Z,8.13
2019-04-29T14:58:24.980Z,7.00